sensor_id;sensor_type;location;lat;lon;timestamp;pressure;altitude;pressure_sealevel;temperature;humidity
18755;BME280;35061;47.664;9.166;2023-08-24T00:00:45;101773.37;;;24.21;69.69
18755;BME280;35061;47.664;9.166;2023-08-24T00:03:13;101769.80;;;24.15;69.87
18755;BME280;35061;47.664;9.166;2023-08-24T00:05:41;101760.84;;;24.13;70.02
18755;BME280;35061;47.664;9.166;2023-08-24T00:08:10;101762.18;;;24.11;70.30
18755;BME280;35061;47.664;9.166;2023-08-24T00:10:39;101743.64;;;24.09;70.62
18755;BME280;35061;47.664;9.166;2023-08-24T00:13:07;101753.98;;;24.10;70.76
18755;BME280;35061;47.664;9.166;2023-08-24T00:15:35;101741.06;;;24.05;70.72
18755;BME280;35061;47.664;9.166;2023-08-24T00:18:04;101737.23;;;23.97;70.75
18755;BME280;35061;47.664;9.166;2023-08-24T00:20:33;101742.43;;;23.91;70.92
18755;BME280;35061;47.664;9.166;2023-08-24T00:23:01;101749.20;;;23.86;70.94
18755;BME280;35061;47.664;9.166;2023-08-24T00:25:30;101753.81;;;23.81;71.06
18755;BME280;35061;47.664;9.166;2023-08-24T00:27:58;101750.25;;;23.75;71.25
18755;BME280;35061;47.664;9.166;2023-08-24T00:30:26;101747.80;;;23.65;71.48
18755;BME280;35061;47.664;9.166;2023-08-24T00:32:54;101752.21;;;23.59;71.82
18755;BME280;35061;47.664;9.166;2023-08-24T00:35:22;101746.09;;;23.56;71.98
18755;BME280;35061;47.664;9.166;2023-08-24T00:37:50;101750.51;;;23.50;72.24
18755;BME280;35061;47.664;9.166;2023-08-24T00:40:18;101753.55;;;23.44;72.40
18755;BME280;35061;47.664;9.166;2023-08-24T00:42:46;101754.47;;;23.39;72.74
18755;BME280;35061;47.664;9.166;2023-08-24T00:45:14;101764.34;;;23.36;72.80
18755;BME280;35061;47.664;9.166;2023-08-24T00:47:44;101747.83;;;23.25;73.16
18755;BME280;35061;47.664;9.166;2023-08-24T00:50:13;101745.44;;;23.23;73.26
18755;BME280;35061;47.664;9.166;2023-08-24T00:52:42;101742.76;;;23.25;73.20
18755;BME280;35061;47.664;9.166;2023-08-24T00:55:10;101737.49;;;23.24;73.38
18755;BME280;35061;47.664;9.166;2023-08-24T00:57:39;101732.98;;;23.23;73.49
18755;BME280;35061;47.664;9.166;2023-08-24T01:00:09;101728.27;;;23.20;73.69
18755;BME280;35061;47.664;9.166;2023-08-24T01:02:38;101730.40;;;23.19;73.81
18755;BME280;35061;47.664;9.166;2023-08-24T01:05:07;101733.90;;;23.18;74.08
18755;BME280;35061;47.664;9.166;2023-08-24T01:07:38;101736.91;;;23.12;74.22
18755;BME280;35061;47.664;9.166;2023-08-24T01:10:08;101740.18;;;23.08;74.46
18755;BME280;35061;47.664;9.166;2023-08-24T01:15:18;101739.95;;;23.06;74.55
18755;BME280;35061;47.664;9.166;2023-08-24T01:17:47;101738.93;;;23.04;74.97
18755;BME280;35061;47.664;9.166;2023-08-24T01:20:18;101737.95;;;23.01;74.77
18755;BME280;35061;47.664;9.166;2023-08-24T01:23:09;101739.62;;;22.96;74.92
18755;BME280;35061;47.664;9.166;2023-08-24T01:25:52;101728.60;;;22.89;75.36
18755;BME280;35061;47.664;9.166;2023-08-24T01:28:24;101720.98;;;22.86;75.31
18755;BME280;35061;47.664;9.166;2023-08-24T01:30:52;101721.08;;;22.80;75.47
18755;BME280;35061;47.664;9.166;2023-08-24T01:33:21;101720.06;;;22.78;75.65
18755;BME280;35061;47.664;9.166;2023-08-24T01:35:49;101721.41;;;22.77;75.82
18755;BME280;35061;47.664;9.166;2023-08-24T01:38:17;101727.03;;;22.75;76.03
18755;BME280;35061;47.664;9.166;2023-08-24T01:43:32;101720.30;;;22.66;76.68
18755;BME280;35061;47.664;9.166;2023-08-24T01:46:07;101722.42;;;22.66;76.57
18755;BME280;35061;47.664;9.166;2023-08-24T01:48:36;101721.63;;;22.65;76.78
18755;BME280;35061;47.664;9.166;2023-08-24T01:51:04;101720.30;;;22.66;76.89
18755;BME280;35061;47.664;9.166;2023-08-24T01:53:33;101719.48;;;22.66;76.92
18755;BME280;35061;47.664;9.166;2023-08-24T01:56:01;101721.63;;;22.65;77.02
18755;BME280;35061;47.664;9.166;2023-08-24T01:58:35;101709.96;;;22.65;76.92
18755;BME280;35061;47.664;9.166;2023-08-24T02:01:04;101697.27;;;22.63;76.99
18755;BME280;35061;47.664;9.166;2023-08-24T02:03:33;101699.62;;;22.64;77.11
18755;BME280;35061;47.664;9.166;2023-08-24T02:06:01;101690.87;;;22.64;77.16
18755;BME280;35061;47.664;9.166;2023-08-24T02:08:29;101692.80;;;22.62;77.22
18755;BME280;35061;47.664;9.166;2023-08-24T02:10:57;101686.48;;;22.57;77.13
18755;BME280;35061;47.664;9.166;2023-08-24T02:13:25;101683.12;;;22.53;77.14
18755;BME280;35061;47.664;9.166;2023-08-24T02:16:04;101676.51;;;22.53;77.17
18755;BME280;35061;47.664;9.166;2023-08-24T02:18:32;101669.09;;;22.52;77.36
18755;BME280;35061;47.664;9.166;2023-08-24T02:21:05;101660.65;;;22.48;77.19
18755;BME280;35061;47.664;9.166;2023-08-24T02:23:34;101647.73;;;22.43;77.26
18755;BME280;35061;47.664;9.166;2023-08-24T02:26:02;101651.52;;;22.38;77.44
18755;BME280;35061;47.664;9.166;2023-08-24T02:28:31;101652.87;;;22.37;77.58
18755;BME280;35061;47.664;9.166;2023-08-24T02:31:01;101643.68;;;22.33;77.62
18755;BME280;35061;47.664;9.166;2023-08-24T02:33:30;101655.68;;;22.29;77.68
18755;BME280;35061;47.664;9.166;2023-08-24T02:35:58;101648.26;;;22.28;77.76
18755;BME280;35061;47.664;9.166;2023-08-24T02:38:26;101657.87;;;22.23;77.93
18755;BME280;35061;47.664;9.166;2023-08-24T02:41:02;101659.80;;;22.21;78.10
18755;BME280;35061;47.664;9.166;2023-08-24T02:43:31;101652.38;;;22.20;78.29
18755;BME280;35061;47.664;9.166;2023-08-24T02:46:03;101653.72;;;22.19;78.01
18755;BME280;35061;47.664;9.166;2023-08-24T02:48:32;101658.79;;;22.18;78.15
18755;BME280;35061;47.664;9.166;2023-08-24T02:51:01;101648.16;;;22.21;78.10
18755;BME280;35061;47.664;9.166;2023-08-24T02:53:30;101652.87;;;22.24;78.17
18755;BME280;35061;47.664;9.166;2023-08-24T02:55:59;101641.09;;;22.29;78.30
18755;BME280;35061;47.664;9.166;2023-08-24T02:58:27;101635.14;;;22.35;78.29
18755;BME280;35061;47.664;9.166;2023-08-24T03:00:55;101628.99;;;22.39;78.21
18755;BME280;35061;47.664;9.166;2023-08-24T03:03:24;101618.76;;;22.32;78.18
18755;BME280;35061;47.664;9.166;2023-08-24T03:06:00;101619.09;;;22.28;78.11
18755;BME280;35061;47.664;9.166;2023-08-24T03:08:30;101629.20;;;22.27;78.06
18755;BME280;35061;47.664;9.166;2023-08-24T03:11:00;101635.14;;;22.22;78.00
18755;BME280;35061;47.664;9.166;2023-08-24T03:13:29;101631.74;;;22.17;78.12
18755;BME280;35061;47.664;9.166;2023-08-24T03:15:57;101628.15;;;22.11;78.23
18755;BME280;35061;47.664;9.166;2023-08-24T03:18:30;101627.46;;;22.05;78.61
18755;BME280;35061;47.664;9.166;2023-08-24T03:20:58;101623.86;;;21.99;78.88
18755;BME280;35061;47.664;9.166;2023-08-24T03:23:27;101626.31;;;21.95;79.15
18755;BME280;35061;47.664;9.166;2023-08-24T03:25:55;101629.84;;;21.87;79.70
18755;BME280;35061;47.664;9.166;2023-08-24T03:28:23;101636.35;;;21.80;79.95
18755;BME280;35061;47.664;9.166;2023-08-24T03:30:52;101635.96;;;21.70;80.63
18755;BME280;35061;47.664;9.166;2023-08-24T03:33:20;101637.37;;;21.64;81.53
18755;BME280;35061;47.664;9.166;2023-08-24T03:35:48;101643.84;;;21.56;82.73
18755;BME280;35061;47.664;9.166;2023-08-24T03:38:17;101634.95;;;21.48;83.79
18755;BME280;35061;47.664;9.166;2023-08-24T03:40:45;101630.76;;;21.44;84.40
18755;BME280;35061;47.664;9.166;2023-08-24T03:43:13;101636.16;;;21.40;85.03
18755;BME280;35061;47.664;9.166;2023-08-24T03:45:42;101635.93;;;21.38;84.88
18755;BME280;35061;47.664;9.166;2023-08-24T03:48:10;101636.22;;;21.34;85.43
18755;BME280;35061;47.664;9.166;2023-08-24T03:50:38;101632.27;;;21.31;85.63
18755;BME280;35061;47.664;9.166;2023-08-24T03:53:06;101632.27;;;21.31;85.63
18755;BME280;35061;47.664;9.166;2023-08-24T03:55:34;101623.77;;;21.33;85.54
18755;BME280;35061;47.664;9.166;2023-08-24T03:58:02;101629.06;;;21.35;85.63
18755;BME280;35061;47.664;9.166;2023-08-24T04:00:31;101631.35;;;21.42;85.52
18755;BME280;35061;47.664;9.166;2023-08-24T04:02:59;101627.10;;;21.43;85.52
18755;BME280;35061;47.664;9.166;2023-08-24T04:05:27;101635.24;;;21.45;85.51
18755;BME280;35061;47.664;9.166;2023-08-24T04:07:55;101637.76;;;21.54;85.41
18755;BME280;35061;47.664;9.166;2023-08-24T04:10:23;101628.80;;;21.52;85.52
18755;BME280;35061;47.664;9.166;2023-08-24T04:12:51;101635.96;;;21.51;85.49
18755;BME280;35061;47.664;9.166;2023-08-24T04:15:19;101629.29;;;21.56;85.28
18755;BME280;35061;47.664;9.166;2023-08-24T04:17:47;101625.56;;;21.56;85.11
18755;BME280;35061;47.664;9.166;2023-08-24T04:20:16;101627.13;;;21.57;84.90
18755;BME280;35061;47.664;9.166;2023-08-24T04:22:55;101617.06;;;21.58;84.89
18755;BME280;35061;47.664;9.166;2023-08-24T04:25:27;101614.80;;;21.70;84.93
18755;BME280;35061;47.664;9.166;2023-08-24T04:27:57;101610.59;;;21.84;84.48
18755;BME280;35061;47.664;9.166;2023-08-24T04:30:28;101604.73;;;21.84;84.47
18755;BME280;35061;47.664;9.166;2023-08-24T04:32:56;101599.73;;;21.85;84.29
18755;BME280;35061;47.664;9.166;2023-08-24T04:35:26;101611.47;;;21.79;84.39
18755;BME280;35061;47.664;9.166;2023-08-24T04:37:55;101604.93;;;21.73;84.50
18755;BME280;35061;47.664;9.166;2023-08-24T04:40:23;101606.59;;;21.68;84.54
18755;BME280;35061;47.664;9.166;2023-08-24T04:42:51;101599.20;;;21.67;84.68
18755;BME280;35061;47.664;9.166;2023-08-24T04:45:19;101603.98;;;21.65;84.88
18755;BME280;35061;47.664;9.166;2023-08-24T04:47:52;101613.30;;;21.63;84.95
18755;BME280;35061;47.664;9.166;2023-08-24T04:50:26;101615.49;;;21.57;85.14
18755;BME280;35061;47.664;9.166;2023-08-24T04:52:54;101619.28;;;21.52;85.22
18755;BME280;35061;47.664;9.166;2023-08-24T04:55:22;101628.34;;;21.48;85.28
18755;BME280;35061;47.664;9.166;2023-08-24T04:57:52;101636.35;;;21.42;85.72
18755;BME280;35061;47.664;9.166;2023-08-24T05:00:20;101632.20;;;21.37;85.89
18755;BME280;35061;47.664;9.166;2023-08-24T05:02:48;101617.19;;;21.33;86.01
18755;BME280;35061;47.664;9.166;2023-08-24T05:05:16;101612.45;;;21.30;86.04
18755;BME280;35061;47.664;9.166;2023-08-24T05:07:44;101608.13;;;21.37;86.17
18755;BME280;35061;47.664;9.166;2023-08-24T05:10:13;101614.87;;;21.45;85.85
18755;BME280;35061;47.664;9.166;2023-08-24T05:12:41;101619.91;;;21.44;85.88
18755;BME280;35061;47.664;9.166;2023-08-24T05:15:09;101619.91;;;21.44;85.84
18755;BME280;35061;47.664;9.166;2023-08-24T05:17:37;101617.16;;;21.52;86.09
18755;BME280;35061;47.664;9.166;2023-08-24T05:20:06;101624.65;;;21.67;85.53
18755;BME280;35061;47.664;9.166;2023-08-24T05:22:39;101625.56;;;21.75;85.26
18755;BME280;35061;47.664;9.166;2023-08-24T05:25:07;101619.97;;;21.77;84.95
18755;BME280;35061;47.664;9.166;2023-08-24T05:27:35;101616.70;;;21.67;84.76
18755;BME280;35061;47.664;9.166;2023-08-24T05:30:03;101617.55;;;21.62;84.68
18755;BME280;35061;47.664;9.166;2023-08-24T05:32:33;101619.22;;;21.57;84.60
18755;BME280;35061;47.664;9.166;2023-08-24T05:35:06;101617.39;;;21.54;84.66
18755;BME280;35061;47.664;9.166;2023-08-24T05:37:34;101615.59;;;21.51;84.68
18755;BME280;35061;47.664;9.166;2023-08-24T05:40:03;101615.36;;;21.49;84.59
18755;BME280;35061;47.664;9.166;2023-08-24T05:42:32;101618.80;;;21.47;84.39
18755;BME280;35061;47.664;9.166;2023-08-24T05:45:00;101613.79;;;21.48;84.21
18755;BME280;35061;47.664;9.166;2023-08-24T05:47:28;101602.90;;;21.48;84.06
18755;BME280;35061;47.664;9.166;2023-08-24T05:49:56;101603.13;;;21.51;84.11
18755;BME280;35061;47.664;9.166;2023-08-24T05:52:24;101604.73;;;21.52;84.03
18755;BME280;35061;47.664;9.166;2023-08-24T05:54:52;101608.88;;;21.56;84.00
18755;BME280;35061;47.664;9.166;2023-08-24T05:57:20;101610.13;;;21.61;83.93
18755;BME280;35061;47.664;9.166;2023-08-24T05:59:48;101615.63;;;21.65;84.02
18755;BME280;35061;47.664;9.166;2023-08-24T06:02:16;101613.53;;;21.65;84.15
18755;BME280;35061;47.664;9.166;2023-08-24T06:04:44;101607.67;;;21.65;84.23
18755;BME280;35061;47.664;9.166;2023-08-24T06:07:12;101606.27;;;21.72;84.14
18755;BME280;35061;47.664;9.166;2023-08-24T06:09:40;101603.59;;;21.74;84.33
18755;BME280;35061;47.664;9.166;2023-08-24T06:12:08;101606.99;;;21.78;84.53
18755;BME280;35061;47.664;9.166;2023-08-24T06:14:36;101604.08;;;21.78;84.61
18755;BME280;35061;47.664;9.166;2023-08-24T06:17:04;101598.68;;;21.82;84.63
18755;BME280;35061;47.664;9.166;2023-08-24T06:19:32;101592.77;;;21.88;84.53
18755;BME280;35061;47.664;9.166;2023-08-24T06:22:00;101588.19;;;21.93;84.46
18755;BME280;35061;47.664;9.166;2023-08-24T06:24:28;101585.80;;;21.91;84.32
18755;BME280;35061;47.664;9.166;2023-08-24T06:26:56;101606.43;;;21.93;84.25
18755;BME280;35061;47.664;9.166;2023-08-24T06:29:24;101601.62;;;21.96;84.23
18755;BME280;35061;47.664;9.166;2023-08-24T06:31:52;101593.91;;;21.98;83.79
18755;BME280;35061;47.664;9.166;2023-08-24T06:34:20;101600.97;;;22.03;83.61
18755;BME280;35061;47.664;9.166;2023-08-24T06:36:50;101602.77;;;22.06;83.06
18755;BME280;35061;47.664;9.166;2023-08-24T06:39:18;101602.77;;;22.06;83.03
18755;BME280;35061;47.664;9.166;2023-08-24T06:41:47;101616.80;;;22.08;82.99
18755;BME280;35061;47.664;9.166;2023-08-24T06:44:15;101610.65;;;22.11;82.90
18755;BME280;35061;47.664;9.166;2023-08-24T06:46:43;101603.49;;;22.12;82.71
18755;BME280;35061;47.664;9.166;2023-08-24T06:49:10;101608.98;;;22.16;82.59
18755;BME280;35061;47.664;9.166;2023-08-24T06:51:38;101597.31;;;22.16;82.20
18755;BME280;35061;47.664;9.166;2023-08-24T06:54:06;101598.88;;;22.17;82.15
18755;BME280;35061;47.664;9.166;2023-08-24T06:56:34;101597.77;;;22.20;81.76
18755;BME280;35061;47.664;9.166;2023-08-24T06:59:02;101602.25;;;22.21;81.28
18755;BME280;35061;47.664;9.166;2023-08-24T07:01:30;101602.70;;;22.25;81.45
18755;BME280;35061;47.664;9.166;2023-08-24T07:03:59;101608.46;;;22.31;81.44
18755;BME280;35061;47.664;9.166;2023-08-24T07:06:27;101605.98;;;22.35;81.17
18755;BME280;35061;47.664;9.166;2023-08-24T07:08:56;101593.98;;;22.39;81.02
18755;BME280;35061;47.664;9.166;2023-08-24T07:11:24;101601.04;;;22.43;80.89
18755;BME280;35061;47.664;9.166;2023-08-24T07:13:52;101599.70;;;22.44;80.53
18755;BME280;35061;47.664;9.166;2023-08-24T07:16:21;101599.27;;;22.54;80.69
18755;BME280;35061;47.664;9.166;2023-08-24T07:18:50;101592.77;;;22.61;80.32
18755;BME280;35061;47.664;9.166;2023-08-24T07:21:18;101598.12;;;22.70;79.54
18755;BME280;35061;47.664;9.166;2023-08-24T07:23:46;101592.99;;;22.77;79.23
18755;BME280;35061;47.664;9.166;2023-08-24T07:26:14;101597.57;;;22.85;78.87
18755;BME280;35061;47.664;9.166;2023-08-24T07:28:42;101592.17;;;22.90;78.24
18755;BME280;35061;47.664;9.166;2023-08-24T07:31:10;101588.12;;;22.93;78.08
18755;BME280;35061;47.664;9.166;2023-08-24T07:33:38;101585.63;;;22.97;77.74
18755;BME280;35061;47.664;9.166;2023-08-24T07:36:06;101584.75;;;23.02;77.19
18755;BME280;35061;47.664;9.166;2023-08-24T07:38:35;101575.27;;;23.09;77.30
18755;BME280;35061;47.664;9.166;2023-08-24T07:41:03;101576.74;;;23.16;76.85
18755;BME280;35061;47.664;9.166;2023-08-24T07:43:30;101572.33;;;23.23;76.45
18755;BME280;35061;47.664;9.166;2023-08-24T07:45:59;101580.41;;;23.30;76.46
18755;BME280;35061;47.664;9.166;2023-08-24T07:48:27;101577.13;;;23.34;76.15
18755;BME280;35061;47.664;9.166;2023-08-24T07:50:55;101569.58;;;23.38;76.18
18755;BME280;35061;47.664;9.166;2023-08-24T07:53:23;101578.44;;;23.46;76.04
18755;BME280;35061;47.664;9.166;2023-08-24T07:55:53;101584.59;;;23.56;75.76
18755;BME280;35061;47.664;9.166;2023-08-24T07:58:21;101586.23;;;23.65;75.64
18755;BME280;35061;47.664;9.166;2023-08-24T08:00:50;101594.73;;;23.76;75.24
18755;BME280;35061;47.664;9.166;2023-08-24T08:03:19;101592.86;;;23.87;74.67
18755;BME280;35061;47.664;9.166;2023-08-24T08:05:48;101601.27;;;23.90;73.76
18755;BME280;35061;47.664;9.166;2023-08-24T08:08:16;101596.85;;;23.97;73.30
18755;BME280;35061;47.664;9.166;2023-08-24T08:10:44;101593.78;;;24.03;72.87
18755;BME280;35061;47.664;9.166;2023-08-24T08:13:12;101595.48;;;23.98;71.64
18755;BME280;35061;47.664;9.166;2023-08-24T08:15:40;101592.02;;;24.00;71.63
18755;BME280;35061;47.664;9.166;2023-08-24T08:18:08;101587.14;;;24.02;71.50
18755;BME280;35061;47.664;9.166;2023-08-24T08:20:36;101588.16;;;24.05;71.38
18755;BME280;35061;47.664;9.166;2023-08-24T08:23:04;101585.87;;;24.11;71.34
18755;BME280;35061;47.664;9.166;2023-08-24T08:25:32;101572.66;;;24.18;71.12
18755;BME280;35061;47.664;9.166;2023-08-24T08:28:00;101585.77;;;24.24;70.47
18755;BME280;35061;47.664;9.166;2023-08-24T08:30:28;101583.84;;;24.27;70.08
18755;BME280;35061;47.664;9.166;2023-08-24T08:32:56;101580.57;;;24.31;69.47
18755;BME280;35061;47.664;9.166;2023-08-24T08:35:24;101584.49;;;24.33;69.60
18755;BME280;35061;47.664;9.166;2023-08-24T08:37:52;101586.09;;;24.42;69.70
18755;BME280;35061;47.664;9.166;2023-08-24T08:40:21;101587.70;;;24.51;69.63
18755;BME280;35061;47.664;9.166;2023-08-24T08:42:59;101583.25;;;24.58;69.40
18755;BME280;35061;47.664;9.166;2023-08-24T08:45:28;101585.44;;;24.65;69.11
18755;BME280;35061;47.664;9.166;2023-08-24T08:47:58;101586.29;;;24.73;68.70
18755;BME280;35061;47.664;9.166;2023-08-24T08:50:27;101588.52;;;24.80;68.17
18755;BME280;35061;47.664;9.166;2023-08-24T08:52:57;101583.25;;;24.87;67.99
18755;BME280;35061;47.664;9.166;2023-08-24T08:55:27;101596.16;;;24.91;67.70
18755;BME280;35061;47.664;9.166;2023-08-24T08:57:58;101588.35;;;24.94;67.35
18755;BME280;35061;47.664;9.166;2023-08-24T09:00:27;101589.36;;;24.97;67.20
18755;BME280;35061;47.664;9.166;2023-08-24T09:02:57;101603.23;;;25.04;67.00
18755;BME280;35061;47.664;9.166;2023-08-24T09:05:26;101597.41;;;25.12;66.66
18755;BME280;35061;47.664;9.166;2023-08-24T09:07:55;101590.80;;;25.19;66.76
18755;BME280;35061;47.664;9.166;2023-08-24T09:10:24;101589.66;;;25.30;66.70
18755;BME280;35061;47.664;9.166;2023-08-24T09:12:51;101584.59;;;25.38;65.90
18755;BME280;35061;47.664;9.166;2023-08-24T09:15:27;101578.57;;;25.44;66.17
18755;BME280;35061;47.664;9.166;2023-08-24T09:18:02;101568.44;;;25.53;65.40
18755;BME280;35061;47.664;9.166;2023-08-24T09:20:31;101570.20;;;25.63;65.96
18755;BME280;35061;47.664;9.166;2023-08-24T09:22:59;101561.63;;;25.73;65.87
18755;BME280;35061;47.664;9.166;2023-08-24T09:25:27;101558.10;;;25.83;65.55
18755;BME280;35061;47.664;9.166;2023-08-24T09:28:03;101562.78;;;25.94;65.30
18755;BME280;35061;47.664;9.166;2023-08-24T09:30:35;101550.05;;;26.06;64.69
18755;BME280;35061;47.664;9.166;2023-08-24T09:33:05;101546.55;;;26.16;64.65
18755;BME280;35061;47.664;9.166;2023-08-24T09:35:37;101543.42;;;26.22;64.01
18755;BME280;35061;47.664;9.166;2023-08-24T09:38:23;101528.73;;;26.29;63.98
18755;BME280;35061;47.664;9.166;2023-08-24T09:40:53;101528.70;;;26.37;63.22
18755;BME280;35061;47.664;9.166;2023-08-24T09:43:23;101533.97;;;26.46;63.54
18755;BME280;35061;47.664;9.166;2023-08-24T09:45:55;101533.94;;;26.54;63.41
18755;BME280;35061;47.664;9.166;2023-08-24T09:48:24;101539.20;;;26.64;63.10
18755;BME280;35061;47.664;9.166;2023-08-24T09:50:56;101542.70;;;26.70;63.40
18755;BME280;35061;47.664;9.166;2023-08-24T09:53:25;101543.06;;;26.74;63.13
18755;BME280;35061;47.664;9.166;2023-08-24T09:55:58;101535.24;;;26.77;63.05
18755;BME280;35061;47.664;9.166;2023-08-24T09:58:27;101532.89;;;26.83;62.87
18755;BME280;35061;47.664;9.166;2023-08-24T10:00:56;101523.87;;;26.88;62.48
18755;BME280;35061;47.664;9.166;2023-08-24T10:03:25;101525.20;;;26.95;62.17
18755;BME280;35061;47.664;9.166;2023-08-24T10:05:55;101520.66;;;27.02;61.58
18755;BME280;35061;47.664;9.166;2023-08-24T10:08:37;101506.50;;;27.08;61.77
18755;BME280;35061;47.664;9.166;2023-08-24T10:11:08;101498.81;;;27.13;61.16
18755;BME280;35061;47.664;9.166;2023-08-24T10:16:38;101504.64;;;27.28;60.18
18755;BME280;35061;47.664;9.166;2023-08-24T10:19:08;101493.39;;;27.35;60.28
18755;BME280;35061;47.664;9.166;2023-08-24T10:21:37;101494.92;;;27.43;59.84
18755;BME280;35061;47.664;9.166;2023-08-24T10:24:06;101490.51;;;27.52;59.57
18755;BME280;35061;47.664;9.166;2023-08-24T10:26:34;101478.70;;;27.60;59.24
18755;BME280;35061;47.664;9.166;2023-08-24T10:29:03;101477.89;;;27.67;59.07
18755;BME280;35061;47.664;9.166;2023-08-24T10:31:32;101473.48;;;27.76;59.05
18755;BME280;35061;47.664;9.166;2023-08-24T10:34:01;101473.60;;;27.86;58.19
18755;BME280;35061;47.664;9.166;2023-08-24T10:36:30;101461.73;;;27.94;58.13
18755;BME280;35061;47.664;9.166;2023-08-24T10:39:02;101460.72;;;27.99;57.61
18755;BME280;35061;47.664;9.166;2023-08-24T10:41:50;101456.73;;;28.04;56.85
18755;BME280;35061;47.664;9.166;2023-08-24T10:44:24;101453.69;;;28.12;56.45
18755;BME280;35061;47.664;9.166;2023-08-24T10:47:25;101454.24;;;28.18;56.58
18755;BME280;35061;47.664;9.166;2023-08-24T10:49:58;101452.94;;;28.29;56.72
18755;BME280;35061;47.664;9.166;2023-08-24T10:52:33;101449.73;;;28.35;56.35
18755;BME280;35061;47.664;9.166;2023-08-24T10:55:03;101444.37;;;28.41;56.63
18755;BME280;35061;47.664;9.166;2023-08-24T10:57:37;101440.71;;;28.50;56.80
18755;BME280;35061;47.664;9.166;2023-08-24T11:00:07;101435.51;;;28.59;55.84
18755;BME280;35061;47.664;9.166;2023-08-24T11:07:57;101425.66;;;28.74;56.12
18755;BME280;35061;47.664;9.166;2023-08-24T11:10:45;101424.36;;;28.85;55.80
18755;BME280;35061;47.664;9.166;2023-08-24T11:13:18;101411.67;;;28.92;55.57
18755;BME280;35061;47.664;9.166;2023-08-24T11:15:50;101411.12;;;29.03;55.79
18755;BME280;35061;47.664;9.166;2023-08-24T11:18:26;101410.23;;;29.10;55.49
18755;BME280;35061;47.664;9.166;2023-08-24T11:21:02;101412.09;;;29.16;55.35
18755;BME280;35061;47.664;9.166;2023-08-24T11:23:30;101411.51;;;29.27;54.78
18755;BME280;35061;47.664;9.166;2023-08-24T11:26:00;101408.27;;;29.33;55.12
18755;BME280;35061;47.664;9.166;2023-08-24T11:28:29;101412.48;;;29.39;55.07
18755;BME280;35061;47.664;9.166;2023-08-24T11:30:58;101400.42;;;29.45;54.86
18755;BME280;35061;47.664;9.166;2023-08-24T11:33:33;101399.80;;;29.47;54.41
18755;BME280;35061;47.664;9.166;2023-08-24T11:36:04;101396.40;;;29.50;53.95
18755;BME280;35061;47.664;9.166;2023-08-24T11:38:42;101387.11;;;29.54;53.86
18755;BME280;35061;47.664;9.166;2023-08-24T11:41:14;101396.86;;;29.57;53.48
18755;BME280;35061;47.664;9.166;2023-08-24T11:43:47;101387.99;;;29.57;53.91
18755;BME280;35061;47.664;9.166;2023-08-24T11:46:17;101394.41;;;29.53;54.11
18755;BME280;35061;47.664;9.166;2023-08-24T11:48:45;101388.32;;;29.51;53.96
18755;BME280;35061;47.664;9.166;2023-08-24T11:51:15;101386.75;;;29.50;53.82
18755;BME280;35061;47.664;9.166;2023-08-24T11:53:55;101399.96;;;29.49;53.33
18755;BME280;35061;47.664;9.166;2023-08-24T11:56:23;101396.70;;;29.45;53.06
18755;BME280;35061;47.664;9.166;2023-08-24T11:58:51;101391.23;;;29.41;53.51
18755;BME280;35061;47.664;9.166;2023-08-24T12:01:19;101389.40;;;29.46;53.81
18755;BME280;35061;47.664;9.166;2023-08-24T12:03:48;101379.30;;;29.49;53.68
18755;BME280;35061;47.664;9.166;2023-08-24T12:06:17;101379.79;;;29.55;53.57
18755;BME280;35061;47.664;9.166;2023-08-24T12:08:47;101375.44;;;29.66;53.51
18755;BME280;35061;47.664;9.166;2023-08-24T12:11:17;101368.64;;;29.73;53.33
18755;BME280;35061;47.664;9.166;2023-08-24T12:13:50;101367.72;;;29.80;53.09
18755;BME280;35061;47.664;9.166;2023-08-24T12:16:19;101367.72;;;29.90;52.84
18755;BME280;35061;47.664;9.166;2023-08-24T12:18:51;101359.61;;;30.01;52.75
18755;BME280;35061;47.664;9.166;2023-08-24T12:21:21;101356.99;;;30.05;52.55
18755;BME280;35061;47.664;9.166;2023-08-24T12:26:27;101358.08;;;30.19;51.97
18755;BME280;35061;47.664;9.166;2023-08-24T12:29:01;101358.53;;;30.26;51.80
18755;BME280;35061;47.664;9.166;2023-08-24T12:31:31;101359.45;;;30.28;51.18
18755;BME280;35061;47.664;9.166;2023-08-24T12:34:04;101342.22;;;30.25;51.21
18755;BME280;35061;47.664;9.166;2023-08-24T12:36:33;101343.62;;;30.24;50.89
18755;BME280;35061;47.664;9.166;2023-08-24T12:39:02;101342.09;;;30.22;51.17
18755;BME280;35061;47.664;9.166;2023-08-24T12:41:32;101341.79;;;30.18;51.21
18755;BME280;35061;47.664;9.166;2023-08-24T12:44:00;101337.28;;;30.17;51.49
18755;BME280;35061;47.664;9.166;2023-08-24T12:46:37;101331.98;;;30.16;51.67
18755;BME280;35061;47.664;9.166;2023-08-24T12:49:06;101322.20;;;30.13;51.74
18755;BME280;35061;47.664;9.166;2023-08-24T12:51:35;101321.91;;;30.09;52.09
18755;BME280;35061;47.664;9.166;2023-08-24T12:54:03;101313.18;;;30.11;52.45
18755;BME280;35061;47.664;9.166;2023-08-24T12:56:34;101309.62;;;30.13;52.69
18755;BME280;35061;47.664;9.166;2023-08-24T12:59:03;101316.45;;;30.15;52.62
18755;BME280;35061;47.664;9.166;2023-08-24T13:01:31;101303.53;;;30.11;52.32
18755;BME280;35061;47.664;9.166;2023-08-24T13:03:59;101298.56;;;30.13;52.27
18755;BME280;35061;47.664;9.166;2023-08-24T13:06:27;101303.23;;;30.16;52.03
18755;BME280;35061;47.664;9.166;2023-08-24T13:08:55;101289.24;;;30.17;52.03
18755;BME280;35061;47.664;9.166;2023-08-24T13:11:23;101278.38;;;30.19;51.98
18755;BME280;35061;47.664;9.166;2023-08-24T13:13:51;101287.38;;;30.21;51.70
18755;BME280;35061;47.664;9.166;2023-08-24T13:16:19;101285.22;;;30.22;52.03
18755;BME280;35061;47.664;9.166;2023-08-24T13:18:47;101272.14;;;30.15;52.21